Wetterdaten: Woche 30.03.15 - 05.04.15 (KW14)
Datum Zeit Temp. A. Feuchte A. Luftdruck Regen Wind Richtung Sonnenschein ET UV Solar Taupunkt Windchill Windben
30.03.2015 00:00 8,6 C 92 % 993,9 hPa 2,4 l/m 18,6 km/h (3 Bft) SW 0,00 h 0,025 mm 0,0 UV-I 0 W/m 7,4 C 2,1 C 31,0 km/h (5 Bft)
30.03.2015 01:00 7,3 C 90 % 994,6 hPa 1,8 l/m 21,8 km/h (4 Bft) W 0,00 h 0,025 mm 0,0 UV-I 0 W/m 5,8 C -0,5 C 33,6 km/h (5 Bft)
30.03.2015 02:00 5,3 C 91 % 995,9 hPa 0,4 l/m 11,9 km/h (2 Bft) W 0,00 h 0,025 mm 0,0 UV-I 0 W/m 4,0 C 1,4 C 18,4 km/h (3 Bft)
30.03.2015 03:00 5,3 C 91 % 996,1 hPa 0,0 l/m 11,1 km/h (2 Bft) W 0,00 h 0,000 mm 0,0 UV-I 0 W/m 3,9 C 1,8 C 17,6 km/h (3 Bft)
30.03.2015 04:00 5,2 C 91 % 996,3 hPa 0,0 l/m 9,3 km/h (2 Bft) W-SW 0,00 h 0,000 mm 0,0 UV-I 0 W/m 4,0 C 2,9 C 14,1 km/h (3 Bft)
30.03.2015 05:00 5,2 C 90 % 996,6 hPa 0,0 l/m 10,9 km/h (2 Bft) W-SW 0,00 h 0,000 mm 0,0 UV-I 0 W/m 3,8 C 1,9 C 16,8 km/h (3 Bft)
30.03.2015 06:00 5,1 C 90 % 996,2 hPa 0,0 l/m 9,3 km/h (2 Bft) W-SW 0,00 h 0,000 mm 0,0 UV-I 0 W/m 3,5 C 2,6 C 15,1 km/h (3 Bft)
30.03.2015 07:00 4,8 C 92 % 996,2 hPa 0,0 l/m 11,3 km/h (2 Bft) W-SW 0,00 h 0,000 mm 0,0 UV-I 16 W/m 3,6 C 1,2 C 18,2 km/h (3 Bft)
30.03.2015 08:00 4,9 C 91 % 996,7 hPa 0,2 l/m 13,8 km/h (3 Bft) W 0,37 h 0,025 mm 0,5 UV-I 48 W/m 3,5 C -0,2 C 21,8 km/h (4 Bft)
30.03.2015 09:00 5,3 C 85 % 997,7 hPa 0,0 l/m 14,1 km/h (3 Bft) W-NW 1,00 h 0,025 mm 0,9 UV-I 186 W/m 2,9 C 0,1 C 21,9 km/h (4 Bft)
30.03.2015 10:00 7,2 C 67 % 998,1 hPa 0,0 l/m 20,5 km/h (4 Bft) W 1,00 h 0,102 mm 2,0 UV-I 585 W/m 1,6 C -0,2 C 31,3 km/h (5 Bft)
30.03.2015 11:00 8,0 C 58 % 999,0 hPa 0,0 l/m 21,3 km/h (4 Bft) W-NW 1,00 h 0,279 mm 2,9 UV-I 687 W/m 0,3 C 0,5 C 32,9 km/h (5 Bft)
30.03.2015 12:00 7,8 C 57 % 999,6 hPa 0,0 l/m 24,5 km/h (4 Bft) W-NW 0,83 h 0,356 mm 2,3 UV-I 378 W/m -0,2 C -0,7 C 37,5 km/h (5 Bft)
30.03.2015 13:00 5,2 C 81 % 1001,0 hPa 0,6 l/m 14,9 km/h (3 Bft) W 0,87 h 0,254 mm 2,3 UV-I 324 W/m 2,1 C -0,3 C 23,0 km/h (4 Bft)
30.03.2015 14:00 8,1 C 66 % 1001,2 hPa 0,0 l/m 19,1 km/h (3 Bft) W 0,92 h 0,178 mm 3,0 UV-I 534 W/m 2,0 C 1,3 C 28,7 km/h (5 Bft)
30.03.2015 15:00 5,7 C 72 % 1002,8 hPa 0,0 l/m 19,2 km/h (3 Bft) W 0,87 h 0,279 mm 2,0 UV-I 357 W/m 0,9 C -1,5 C 30,3 km/h (5 Bft)
30.03.2015 16:00 7,9 C 57 % 1003,3 hPa 0,0 l/m 19,8 km/h (3 Bft) W 0,93 h 0,203 mm 1,7 UV-I 429 W/m -0,2 C 0,9 C 30,4 km/h (5 Bft)
30.03.2015 17:00 6,0 C 67 % 1004,6 hPa 0,0 l/m 19,2 km/h (3 Bft) W 1,00 h 0,254 mm 0,8 UV-I 189 W/m 0,3 C -1,2 C 29,9 km/h (5 Bft)
30.03.2015 18:00 4,0 C 83 % 1006,1 hPa 0,2 l/m 14,4 km/h (3 Bft) W 0,60 h 0,127 mm 0,0 UV-I 81 W/m 1,4 C -1,3 C 22,4 km/h (4 Bft)
30.03.2015 19:00 2,3 C 87 % 1008,0 hPa 0,4 l/m 9,5 km/h (2 Bft) W 0,08 h 0,051 mm 0,0 UV-I 22 W/m 0,3 C -0,3 C 15,8 km/h (3 Bft)
30.03.2015 20:00 2,6 C 83 % 1009,6 hPa 0,0 l/m 11,2 km/h (2 Bft) W-NW 0,00 h 0,025 mm 0,0 UV-I 0 W/m -0,0 C -1,2 C 17,9 km/h (3 Bft)
30.03.2015 21:00 2,7 C 83 % 1010,5 hPa 0,0 l/m 6,0 km/h (2 Bft) W 0,00 h 0,025 mm 0,0 UV-I 0 W/m 0,1 C 1,8 C 10,1 km/h (2 Bft)
30.03.2015 22:00 1,9 C 88 % 1010,8 hPa 0,0 l/m 2,6 km/h (1 Bft) W-SW 0,00 h 0,025 mm 0,0 UV-I 0 W/m 0,1 C 1,9 C 5,7 km/h (2 Bft)
30.03.2015 23:00 1,3 C 89 % 1011,0 hPa 0,0 l/m 2,3 km/h (1 Bft) W-SW 0,00 h 0,000 mm 0,0 UV-I 0 W/m -0,3 C 1,3 C 4,9 km/h (1 Bft)
31.03.2015 00:00 0,8 C 89 % 1010,6 hPa 0,0 l/m 1,0 km/h (0 Bft) N 0,00 h 0,000 mm 0,0 UV-I 0 W/m -0,8 C 0,8 C 2,6 km/h (1 Bft)
31.03.2015 01:00 0,8 C 89 % 1009,7 hPa 0,0 l/m 0,5 km/h (0 Bft) N 0,00 h 0,000 mm 0,0 UV-I 0 W/m -0,8 C 0,8 C 1,5 km/h (1 Bft)
31.03.2015 02:00 1,2 C 86 % 1008,8 hPa 0,0 l/m 3,1 km/h (1 Bft) S 0,00 h 0,000 mm 0,0 UV-I 0 W/m -0,9 C 1,2 C 6,3 km/h (2 Bft)
31.03.2015 03:00 1,8 C 86 % 1006,8 hPa 0,0 l/m 8,1 km/h (2 Bft) S 0,00 h 0,000 mm 0,0 UV-I 0 W/m -0,3 C -0,0 C 13,2 km/h (3 Bft)
31.03.2015 04:00 1,1 C 92 % 1004,0 hPa 0,0 l/m 8,3 km/h (2 Bft) S-SO 0,00 h 0,000 mm 0,0 UV-I 0 W/m 0,0 C -0,8 C 12,3 km/h (2 Bft)
31.03.2015 05:00 0,9 C 95 % 1001,0 hPa 0,2 l/m 10,3 km/h (2 Bft) S-SO 0,00 h 0,000 mm 0,0 UV-I 0 W/m 0,2 C -2,5 C 15,8 km/h (3 Bft)
31.03.2015 06:00 1,6 C 95 % 998,4 hPa 3,6 l/m 9,5 km/h (2 Bft) S 0,00 h 0,000 mm 0,0 UV-I 0 W/m 0,9 C -1,2 C 14,9 km/h (3 Bft)
31.03.2015 07:00 3,6 C 97 % 996,0 hPa 3,8 l/m 12,9 km/h (3 Bft) S-SW 0,00 h 0,000 mm 0,0 UV-I 5 W/m 3,1 C -1,1 C 22,1 km/h (4 Bft)
31.03.2015 08:00 6,2 C 97 % 994,7 hPa 1,2 l/m 16,1 km/h (3 Bft) SW 0,00 h 0,000 mm 0,0 UV-I 10 W/m 5,8 C 0,4 C 27,1 km/h (5 Bft)
31.03.2015 09:00 8,9 C 93 % 993,7 hPa 1,2 l/m 24,1 km/h (4 Bft) W-SW 0,00 h 0,000 mm 0,0 UV-I 24 W/m 7,8 C 0,8 C 39,1 km/h (6 Bft)
31.03.2015 10:00 9,7 C 88 % 993,7 hPa 0,8 l/m 30,8 km/h (5 Bft) W-SW 0,82 h 0,025 mm 0,9 UV-I 97 W/m 7,8 C 0,2 C 49,3 km/h (7 Bft)
31.03.2015 11:00 10,6 C 82 % 994,5 hPa 0,0 l/m 31,7 km/h (5 Bft) W 1,00 h 0,076 mm 2,5 UV-I 353 W/m 7,7 C 1,3 C 51,9 km/h (7 Bft)
31.03.2015 12:00 11,8 C 73 % 994,7 hPa 0,0 l/m 26,1 km/h (4 Bft) W 1,00 h 0,254 mm 2,8 UV-I 402 W/m 7,2 C 4,2 C 40,0 km/h (6 Bft)
31.03.2015 13:00 10,0 C 78 % 995,5 hPa 1,2 l/m 28,1 km/h (5 Bft) W 0,92 h 0,305 mm 1,9 UV-I 251 W/m 6,3 C 1,3 C 42,8 km/h (6 Bft)
31.03.2015 14:00 7,1 C 89 % 997,2 hPa 0,4 l/m 20,0 km/h (4 Bft) W 0,65 h 0,178 mm 1,1 UV-I 104 W/m 5,3 C -0,1 C 31,2 km/h (5 Bft)
31.03.2015 15:00 7,6 C 85 % 997,9 hPa 0,2 l/m 24,7 km/h (4 Bft) W 1,00 h 0,076 mm 1,5 UV-I 234 W/m 5,3 C -1,2 C 37,8 km/h (5 Bft)
31.03.2015 16:00 7,6 C 81 % 998,7 hPa 0,0 l/m 23,8 km/h (4 Bft) W 1,00 h 0,127 mm 1,0 UV-I 193 W/m 4,6 C -0,8 C 38,1 km/h (6 Bft)
31.03.2015 17:00 7,6 C 79 % 999,7 hPa 0,0 l/m 22,4 km/h (4 Bft) W 0,67 h 0,127 mm 1,0 UV-I 195 W/m 4,3 C -0,4 C 35,9 km/h (5 Bft)
31.03.2015 18:00 7,1 C 73 % 1001,3 hPa 0,0 l/m 19,7 km/h (3 Bft) W 0,70 h 0,127 mm 0,5 UV-I 109 W/m 2,6 C -0,2 C 31,4 km/h (5 Bft)
31.03.2015 19:00 6,2 C 71 % 1003,0 hPa 0,2 l/m 23,0 km/h (4 Bft) W-NW 0,02 h 0,102 mm 0,0 UV-I 12 W/m 1,3 C -2,3 C 36,5 km/h (5 Bft)
31.03.2015 20:00 5,9 C 67 % 1004,6 hPa 0,0 l/m 14,9 km/h (3 Bft) W 0,00 h 0,051 mm 0,0 UV-I 0 W/m 0,3 C 0,4 C 24,6 km/h (4 Bft)
31.03.2015 21:00 5,5 C 66 % 1005,7 hPa 0,0 l/m 13,3 km/h (3 Bft) W 0,00 h 0,051 mm 0,0 UV-I 0 W/m -0,4 C 0,8 C 21,6 km/h (4 Bft)
31.03.2015 22:00 4,8 C 70 % 1006,0 hPa 0,2 l/m 15,5 km/h (3 Bft) W 0,00 h 0,051 mm 0,0 UV-I 0 W/m -0,3 C -0,8 C 23,9 km/h (4 Bft)
31.03.2015 23:00 2,5 C 87 % 1006,8 hPa 0,8 l/m 17,9 km/h (3 Bft) W-NW 0,00 h 0,051 mm 0,0 UV-I 0 W/m 0,5 C -5,0 C 27,7 km/h (5 Bft)
01.04.2015 00:00 2,0 C 91 % 1006,8 hPa 0,6 l/m 11,6 km/h (2 Bft) W-NW 0,00 h 0,025 mm 0,0 UV-I 0 W/m 0,7 C -2,0 C 18,0 km/h (3 Bft)
01.04.2015 01:00 1,4 C 92 % 1006,8 hPa 0,0 l/m 12,5 km/h (2 Bft) W 0,00 h 0,000 mm 0,0 UV-I 0 W/m 0,3 C -3,5 C 19,6 km/h (3 Bft)
01.04.2015 02:00 1,7 C 89 % 1006,8 hPa 0,0 l/m 16,0 km/h (3 Bft) W 0,00 h 0,000 mm 0,0 UV-I 0 W/m 0,2 C -5,3 C 26,0 km/h (4 Bft)
01.04.2015 03:00 1,4 C 89 % 1007,3 hPa 0,0 l/m 16,4 km/h (3 Bft) W 0,00 h 0,025 mm 0,0 UV-I 0 W/m -0,3 C -5,7 C 25,9 km/h (4 Bft)
01.04.2015 04:00 1,5 C 81 % 1008,1 hPa 0,0 l/m 20,2 km/h (4 Bft) W-NW 0,00 h 0,000 mm 0,0 UV-I 0 W/m -1,4 C -7,5 C 31,4 km/h (5 Bft)
01.04.2015 05:00 1,4 C 80 % 1008,5 hPa 0,0 l/m 16,3 km/h (3 Bft) W 0,00 h 0,025 mm 0,0 UV-I 0 W/m -1,6 C -5,8 C 25,9 km/h (4 Bft)
01.04.2015 06:00 1,3 C 79 % 1008,9 hPa 0,0 l/m 12,9 km/h (3 Bft) W 0,00 h 0,025 mm 0,0 UV-I 7 W/m -1,9 C -3,9 C 20,2 km/h (4 Bft)
01.04.2015 07:00 1,2 C 83 % 1009,6 hPa 0,0 l/m 15,4 km/h (3 Bft) W 0,15 h 0,025 mm 0,0 UV-I 29 W/m -1,4 C -5,5 C 23,6 km/h (4 Bft)
01.04.2015 08:00 1,4 C 82 % 1010,5 hPa 0,0 l/m 15,9 km/h (3 Bft) W 0,77 h 0,025 mm 0,5 UV-I 76 W/m -1,4 C -5,5 C 24,9 km/h (4 Bft)
01.04.2015 09:00 2,1 C 78 % 1011,0 hPa 0,0 l/m 18,0 km/h (3 Bft) W 1,00 h 0,051 mm 0,8 UV-I 145 W/m -1,3 C -5,8 C 28,9 km/h (5 Bft)
01.04.2015 10:00 2,7 C 77 % 1012,0 hPa 0,0 l/m 18,7 km/h (3 Bft) W 1,00 h 0,076 mm 1,3 UV-I 288 W/m -0,9 C -5,4 C 29,4 km/h (5 Bft)
01.04.2015 11:00 3,3 C 72 % 1012,9 hPa 0,2 l/m 19,6 km/h (3 Bft) W 1,00 h 0,127 mm 1,5 UV-I 266 W/m -1,3 C -4,8 C 30,7 km/h (5 Bft)
01.04.2015 12:00 3,8 C 73 % 1013,4 hPa 0,0 l/m 17,9 km/h (3 Bft) W 1,00 h 0,152 mm 1,8 UV-I 293 W/m -0,6 C -3,6 C 27,9 km/h (5 Bft)
01.04.2015 13:00 4,4 C 73 % 1013,9 hPa 0,0 l/m 18,4 km/h (3 Bft) W 1,00 h 0,152 mm 2,4 UV-I 425 W/m -0,1 C -3,0 C 29,2 km/h (5 Bft)
01.04.2015 14:00 5,7 C 66 % 1014,0 hPa 0,0 l/m 20,0 km/h (4 Bft) W 1,00 h 0,229 mm 2,5 UV-I 529 W/m -0,1 C -2,0 C 30,8 km/h (5 Bft)
01.04.2015 15:00 6,5 C 59 % 1013,9 hPa 0,0 l/m 19,6 km/h (3 Bft) W 0,95 h 0,254 mm 2,3 UV-I 575 W/m -1,0 C -0,8 C 30,8 km/h (5 Bft)
01.04.2015 16:00 3,5 C 76 % 1014,6 hPa 0,0 l/m 14,5 km/h (3 Bft) W-NW 0,43 h 0,305 mm 1,0 UV-I 103 W/m -0,4 C -1,9 C 22,3 km/h (4 Bft)
01.04.2015 17:00 3,3 C 83 % 1014,4 hPa 0,0 l/m 10,3 km/h (2 Bft) W 0,75 h 0,076 mm 0,7 UV-I 119 W/m 0,6 C 0,2 C 17,2 km/h (3 Bft)
01.04.2015 18:00 2,6 C 84 % 1014,8 hPa 0,4 l/m 15,2 km/h (3 Bft) W 0,05 h 0,051 mm 0,0 UV-I 22 W/m 0,2 C -3,6 C 23,7 km/h (4 Bft)
01.04.2015 19:00 1,7 C 89 % 1015,5 hPa 0,0 l/m 11,4 km/h (2 Bft) W 0,00 h 0,025 mm 0,0 UV-I 9 W/m 0,1 C -2,4 C 17,8 km/h (3 Bft)
01.04.2015 20:00 0,7 C 94 % 1016,0 hPa 0,0 l/m 10,6 km/h (2 Bft) W 0,00 h 0,000 mm 0,0 UV-I 0 W/m -0,2 C -3,1 C 16,4 km/h (3 Bft)
01.04.2015 21:00 0,8 C 91 % 1016,6 hPa 0,6 l/m 11,9 km/h (2 Bft) W 0,00 h 0,000 mm 0,0 UV-I 0 W/m -0,5 C -3,7 C 18,2 km/h (3 Bft)
01.04.2015 22:00 0,9 C 91 % 1017,0 hPa 0,6 l/m 10,1 km/h (2 Bft) W 0,00 h 0,000 mm 0,0 UV-I 0 W/m -0,5 C -2,4 C 15,7 km/h (3 Bft)
01.04.2015 23:00 1,1 C 88 % 1017,3 hPa 0,2 l/m 12,2 km/h (2 Bft) W 0,00 h 0,000 mm 0,0 UV-I 0 W/m -0,7 C -3,6 C 19,5 km/h (3 Bft)
02.04.2015 00:00 1,0 C 90 % 1017,4 hPa 0,0 l/m 9,5 km/h (2 Bft) W-SW 0,00 h 0,025 mm 0,0 UV-I 0 W/m -0,4 C -1,9 C 14,8 km/h (3 Bft)
02.04.2015 01:00 0,8 C 93 % 1017,1 hPa 0,0 l/m 9,2 km/h (2 Bft) W-SW 0,00 h 0,000 mm 0,0 UV-I 0 W/m -0,2 C -1,9 C 14,4 km/h (3 Bft)
02.04.2015 02:00 0,8 C 93 % 1015,8 hPa 0,2 l/m 7,0 km/h (2 Bft) SW 0,00 h 0,000 mm 0,0 UV-I 0 W/m -0,2 C -0,4 C 11,6 km/h (2 Bft)
02.04.2015 03:00 0,7 C 94 % 1014,5 hPa 0,4 l/m 8,5 km/h (2 Bft) SW 0,00 h 0,000 mm 0,0 UV-I 0 W/m -0,2 C -1,4 C 13,6 km/h (3 Bft)
02.04.2015 04:00 0,9 C 94 % 1013,2 hPa 0,4 l/m 11,2 km/h (2 Bft) W-SW 0,00 h 0,000 mm 0,0 UV-I 0 W/m 0,0 C -3,2 C 17,4 km/h (3 Bft)
02.04.2015 05:00 1,0 C 94 % 1011,9 hPa 0,2 l/m 11,0 km/h (2 Bft) W-SW 0,00 h 0,000 mm 0,0 UV-I 0 W/m 0,2 C -2,9 C 18,1 km/h (3 Bft)
02.04.2015 06:00 1,1 C 94 % 1010,8 hPa 0,4 l/m 10,7 km/h (2 Bft) SW 0,00 h 0,000 mm 0,0 UV-I 0 W/m 0,2 C -2,6 C 17,6 km/h (3 Bft)
02.04.2015 07:00 1,0 C 94 % 1010,0 hPa 0,8 l/m 10,1 km/h (2 Bft) SW 0,00 h 0,000 mm 0,0 UV-I 11 W/m 0,2 C -2,3 C 16,9 km/h (3 Bft)
02.04.2015 08:00 0,9 C 95 % 1009,0 hPa 0,8 l/m 10,5 km/h (2 Bft) SW 0,00 h 0,000 mm 0,0 UV-I 35 W/m 0,2 C -2,7 C 17,3 km/h (3 Bft)
02.04.2015 09:00 1,0 C 95 % 1007,9 hPa 1,2 l/m 8,1 km/h (2 Bft) SW 0,93 h 0,025 mm 0,5 UV-I 67 W/m 0,2 C -0,8 C 13,9 km/h (3 Bft)
02.04.2015 10:00 1,2 C 95 % 1006,9 hPa 0,8 l/m 9,2 km/h (2 Bft) SW 1,00 h 0,025 mm 0,7 UV-I 105 W/m 0,5 C -1,5 C 15,0 km/h (3 Bft)
02.04.2015 11:00 1,2 C 95 % 1006,2 hPa 1,0 l/m 10,0 km/h (2 Bft) W-SW 1,00 h 0,051 mm 0,9 UV-I 134 W/m 0,5 C -1,9 C 16,8 km/h (3 Bft)
02.04.2015 12:00 1,5 C 95 % 1006,2 hPa 0,2 l/m 13,3 km/h (3 Bft) W-SW 0,95 h 0,051 mm 1,0 UV-I 140 W/m 0,8 C -3,9 C 20,7 km/h (4 Bft)
02.04.2015 13:00 1,1 C 96 % 1007,6 hPa 2,0 l/m 8,3 km/h (2 Bft) NW 1,00 h 0,051 mm 1,1 UV-I 151 W/m 0,5 C -1,0 C 13,8 km/h (3 Bft)
02.04.2015 14:00 3,3 C 89 % 1008,9 hPa 0,2 l/m 15,2 km/h (3 Bft) NW 1,00 h 0,051 mm 2,7 UV-I 509 W/m 1,6 C -2,8 C 22,4 km/h (4 Bft)
02.04.2015 15:00 4,0 C 80 % 1009,8 hPa 0,0 l/m 17,9 km/h (3 Bft) NW 1,00 h 0,203 mm 1,8 UV-I 423 W/m 0,9 C -3,3 C 27,2 km/h (5 Bft)
02.04.2015 16:00 3,9 C 80 % 1011,2 hPa 0,2 l/m 14,5 km/h (3 Bft) NW 1,00 h 0,178 mm 1,5 UV-I 461 W/m 0,6 C -1,4 C 22,0 km/h (4 Bft)
02.04.2015 17:00 4,4 C 69 % 1012,5 hPa 0,0 l/m 20,0 km/h (4 Bft) NW 0,97 h 0,203 mm 1,0 UV-I 269 W/m -0,8 C -3,8 C 29,7 km/h (5 Bft)
02.04.2015 18:00 3,3 C 74 % 1013,8 hPa 0,0 l/m 13,6 km/h (3 Bft) NW 0,57 h 0,152 mm 0,5 UV-I 95 W/m -0,9 C -1,9 C 20,2 km/h (4 Bft)
02.04.2015 19:00 2,0 C 80 % 1015,3 hPa 0,0 l/m 10,4 km/h (2 Bft) W-NW 0,00 h 0,076 mm 0,0 UV-I 13 W/m -1,1 C -1,3 C 16,7 km/h (3 Bft)
02.04.2015 20:00 1,2 C 84 % 1016,8 hPa 0,0 l/m 9,4 km/h (2 Bft) NW 0,00 h 0,025 mm 0,0 UV-I 0 W/m -1,2 C -1,9 C 14,9 km/h (3 Bft)
02.04.2015 21:00 0,1 C 91 % 1018,0 hPa 0,0 l/m 6,2 km/h (2 Bft) W-NW 0,00 h 0,025 mm 0,0 UV-I 0 W/m -1,2 C -0,9 C 10,0 km/h (2 Bft)
02.04.2015 22:00 -0,2 C 91 % 1019,0 hPa 0,2 l/m 1,1 km/h (1 Bft) W-SW 0,00 h 0,000 mm 0,0 UV-I 0 W/m -1,6 C -0,2 C 2,6 km/h (1 Bft)
02.04.2015 23:00 -0,5 C 90 % 1019,6 hPa 0,2 l/m 4,6 km/h (1 Bft) W 0,00 h 0,000 mm 0,0 UV-I 0 W/m -2,0 C -0,7 C 7,8 km/h (2 Bft)
03.04.2015 00:00 -0,7 C 89 % 1020,2 hPa 0,0 l/m 5,8 km/h (2 Bft) W-NW 0,00 h 0,000 mm 0,0 UV-I 0 W/m -2,3 C -1,0 C 9,0 km/h (2 Bft)
03.04.2015 01:00 -0,4 C 89 % 1020,7 hPa 0,0 l/m 4,6 km/h (1 Bft) W 0,00 h 0,000 mm 0,0 UV-I 0 W/m -2,0 C -0,5 C 8,2 km/h (2 Bft)
03.04.2015 02:00 -0,1 C 89 % 1021,0 hPa 0,0 l/m 5,9 km/h (2 Bft) W 0,00 h 0,000 mm 0,0 UV-I 0 W/m -1,6 C -0,6 C 10,2 km/h (2 Bft)
03.04.2015 03:00 0,2 C 89 % 1021,2 hPa 0,0 l/m 6,4 km/h (2 Bft) W 0,00 h 0,000 mm 0,0 UV-I 0 W/m -1,4 C -0,5 C 10,4 km/h (2 Bft)
03.04.2015 04:00 0,2 C 87 % 1021,4 hPa 0,0 l/m 6,1 km/h (2 Bft) W 0,00 h 0,000 mm 0,0 UV-I 0 W/m -1,7 C -0,5 C 10,3 km/h (2 Bft)
03.04.2015 05:00 0,2 C 87 % 1021,7 hPa 0,0 l/m 6,3 km/h (2 Bft) W-SW 0,00 h 0,000 mm 0,0 UV-I 0 W/m -1,7 C -0,4 C 10,6 km/h (2 Bft)
03.04.2015 06:00 0,1 C 87 % 1021,7 hPa 0,0 l/m 7,3 km/h (2 Bft) W-SW 0,00 h 0,000 mm 0,0 UV-I 6 W/m -1,8 C -1,2 C 11,5 km/h (2 Bft)
03.04.2015 07:00 0,1 C 87 % 1022,0 hPa 0,0 l/m 6,6 km/h (2 Bft) W 0,12 h 0,000 mm 0,0 UV-I 31 W/m -1,8 C -1,0 C 10,8 km/h (2 Bft)
03.04.2015 08:00 0,6 C 87 % 1022,2 hPa 0,0 l/m 5,4 km/h (2 Bft) W-SW 1,00 h 0,025 mm 0,6 UV-I 87 W/m -1,4 C 0,1 C 8,9 km/h (2 Bft)
03.04.2015 09:00 1,2 C 85 % 1022,2 hPa 0,0 l/m 6,2 km/h (2 Bft) W-SW 1,00 h 0,025 mm 0,8 UV-I 122 W/m -1,0 C 0,6 C 10,3 km/h (2 Bft)
03.04.2015 10:00 1,9 C 83 % 1022,2 hPa 0,0 l/m 6,7 km/h (2 Bft) W-SW 1,00 h 0,051 mm 1,2 UV-I 166 W/m -0,6 C 1,0 C 11,0 km/h (2 Bft)
03.04.2015 11:00 2,4 C 81 % 1022,1 hPa 0,0 l/m 7,6 km/h (2 Bft) W-SW 1,00 h 0,076 mm 1,5 UV-I 201 W/m -0,5 C 0,9 C 12,2 km/h (2 Bft)
03.04.2015 12:00 4,0 C 72 % 1021,5 hPa 0,0 l/m 9,5 km/h (2 Bft) W-NW 1,00 h 0,076 mm 2,6 UV-I 337 W/m -0,6 C 1,5 C 14,9 km/h (3 Bft)
03.04.2015 13:00 5,6 C 61 % 1020,8 hPa 0,0 l/m 10,4 km/h (2 Bft) W-NW 1,00 h 0,152 mm 3,7 UV-I 452 W/m -1,4 C 2,5 C 16,0 km/h (3 Bft)
03.04.2015 14:00 5,8 C 60 % 1020,2 hPa 0,0 l/m 10,4 km/h (2 Bft) W-NW 1,00 h 0,229 mm 3,0 UV-I 295 W/m -1,3 C 2,7 C 16,0 km/h (3 Bft)
03.04.2015 15:00 7,1 C 52 % 1019,3 hPa 0,0 l/m 11,4 km/h (2 Bft) W-NW 1,00 h 0,203 mm 3,0 UV-I 545 W/m -2,0 C 3,7 C 17,5 km/h (3 Bft)
03.04.2015 16:00 7,2 C 51 % 1018,5 hPa 0,0 l/m 10,0 km/h (2 Bft) W 1,00 h 0,279 mm 1,8 UV-I 374 W/m -2,3 C 4,6 C 15,2 km/h (3 Bft)
03.04.2015 17:00 7,5 C 51 % 1017,9 hPa 0,0 l/m 8,2 km/h (2 Bft) NW 1,00 h 0,203 mm 1,1 UV-I 322 W/m -2,0 C 6,0 C 12,8 km/h (3 Bft)
03.04.2015 18:00 6,6 C 54 % 1017,8 hPa 0,0 l/m 6,3 km/h (2 Bft) N-NW 0,62 h 0,178 mm 0,6 UV-I 118 W/m -1,9 C 5,8 C 9,8 km/h (2 Bft)
03.04.2015 19:00 4,9 C 62 % 1017,5 hPa 0,0 l/m 1,2 km/h (1 Bft) N 0,00 h 0,076 mm 0,0 UV-I 13 W/m -1,8 C 4,9 C 2,7 km/h (1 Bft)
03.04.2015 20:00 2,5 C 76 % 1017,5 hPa 0,0 l/m 0,0 km/h (0 Bft) N 0,00 h 0,000 mm 0,0 UV-I 0 W/m -1,3 C 2,5 C 0,1 km/h (0 Bft)
03.04.2015 21:00 0,7 C 85 % 1017,6 hPa 0,0 l/m 0,3 km/h (0 Bft) N 0,00 h 0,002 mm 0,0 UV-I 0 W/m -1,6 C 0,7 C 0,8 km/h (0 Bft)
03.04.2015 22:00 -0,0 C 86 % 1017,8 hPa 0,0 l/m 0,0 km/h (0 Bft) N 0,00 h 0,000 mm 0,0 UV-I 0 W/m -2,0 C -0,0 C 0,1 km/h (0 Bft)
03.04.2015 23:00 -0,9 C 89 % 1017,7 hPa 0,0 l/m 0,0 km/h (0 Bft) N 0,00 h 0,000 mm 0,0 UV-I 0 W/m -2,5 C -0,9 C 0,0 km/h (0 Bft)
04.04.2015 00:00 -1,5 C 90 % 1017,5 hPa 0,0 l/m 0,0 km/h (0 Bft) N 0,00 h 0,000 mm 0,0 UV-I 0 W/m -3,0 C -1,5 C 0,0 km/h (0 Bft)
04.04.2015 01:00 -1,8 C 92 % 1017,0 hPa 0,0 l/m 0,0 km/h (0 Bft) N 0,00 h 0,000 mm 0,0 UV-I 0 W/m -3,0 C -1,8 C 0,1 km/h (0 Bft)
04.04.2015 02:00 -2,1 C 92 % 1016,7 hPa 0,0 l/m 0,0 km/h (0 Bft) N 0,00 h 0,000 mm 0,0 UV-I 0 W/m -3,2 C -2,1 C 0,0 km/h (0 Bft)
04.04.2015 03:00 -2,6 C 92 % 1016,3 hPa 0,0 l/m 0,0 km/h (0 Bft) N 0,00 h 0,000 mm 0,0 UV-I 0 W/m -3,7 C -2,6 C 0,0 km/h (0 Bft)
04.04.2015 04:00 -2,9 C 93 % 1015,8 hPa 0,0 l/m 0,0 km/h (0 Bft) N 0,00 h 0,000 mm 0,0 UV-I 0 W/m -3,9 C -2,9 C 0,0 km/h (0 Bft)
04.04.2015 05:00 -3,1 C 93 % 1015,6 hPa 0,0 l/m 0,0 km/h (0 Bft) N 0,00 h 0,000 mm 0,0 UV-I 0 W/m -4,1 C -3,1 C 0,0 km/h (0 Bft)
04.04.2015 06:00 -3,1 C 93 % 1015,6 hPa 0,0 l/m 0,0 km/h (0 Bft) N 0,00 h 0,000 mm 0,0 UV-I 7 W/m -4,0 C -3,1 C 0,0 km/h (0 Bft)
04.04.2015 07:00 -2,7 C 94 % 1015,4 hPa 0,0 l/m 0,0 km/h (0 Bft) N 0,33 h 0,000 mm 0,0 UV-I 39 W/m -3,5 C -2,7 C 0,2 km/h (0 Bft)
04.04.2015 08:00 -1,0 C 94 % 1015,3 hPa 0,0 l/m 0,0 km/h (0 Bft) N 1,00 h 0,000 mm 0,6 UV-I 124 W/m -1,8 C -1,0 C 0,1 km/h (0 Bft)
04.04.2015 09:00 1,7 C 88 % 1015,1 hPa 0,0 l/m 0,3 km/h (0 Bft) N 1,00 h 0,051 mm 1,1 UV-I 237 W/m -0,1 C 1,7 C 1,0 km/h (0 Bft)
04.04.2015 10:00 4,2 C 70 % 1015,0 hPa 0,0 l/m 1,8 km/h (1 Bft) O-NO 1,00 h 0,076 mm 2,0 UV-I 391 W/m -0,7 C 4,2 C 4,6 km/h (1 Bft)
04.04.2015 11:00 5,8 C 56 % 1014,9 hPa 0,0 l/m 3,3 km/h (1 Bft) N 1,00 h 0,152 mm 2,6 UV-I 469 W/m -2,4 C 5,6 C 7,3 km/h (2 Bft)
04.04.2015 12:00 6,8 C 50 % 1014,7 hPa 0,0 l/m 5,8 km/h (2 Bft) N 1,00 h 0,203 mm 3,2 UV-I 584 W/m -2,8 C 6,0 C 10,3 km/h (2 Bft)
04.04.2015 13:00 7,1 C 49 % 1014,6 hPa 0,0 l/m 7,5 km/h (2 Bft) N-NO 1,00 h 0,279 mm 2,8 UV-I 463 W/m -2,8 C 5,6 C 11,9 km/h (2 Bft)
04.04.2015 14:00 6,9 C 49 % 1014,3 hPa 0,0 l/m 7,8 km/h (2 Bft) N-NO 1,00 h 0,229 mm 2,3 UV-I 389 W/m -3,1 C 5,2 C 12,8 km/h (3 Bft)
04.04.2015 15:00 7,5 C 46 % 1013,9 hPa 0,0 l/m 9,7 km/h (2 Bft) N-NO 1,00 h 0,203 mm 2,1 UV-I 422 W/m -3,3 C 5,1 C 15,3 km/h (3 Bft)
04.04.2015 16:00 6,8 C 47 % 1014,1 hPa 0,0 l/m 12,2 km/h (2 Bft) N-NO 1,00 h 0,229 mm 1,3 UV-I 247 W/m -3,7 C 2,9 C 18,8 km/h (3 Bft)
04.04.2015 17:00 5,6 C 49 % 1014,4 hPa 0,0 l/m 7,8 km/h (2 Bft) N-NO 1,00 h 0,152 mm 0,8 UV-I 104 W/m -4,1 C 4,0 C 12,7 km/h (3 Bft)
04.04.2015 18:00 5,2 C 49 % 1014,8 hPa 0,0 l/m 8,1 km/h (2 Bft) N 0,80 h 0,076 mm 0,6 UV-I 95 W/m -4,7 C 3,5 C 13,3 km/h (3 Bft)
04.04.2015 19:00 3,8 C 54 % 1015,2 hPa 0,0 l/m 6,7 km/h (2 Bft) N 0,00 h 0,076 mm 0,0 UV-I 19 W/m -4,6 C 3,0 C 11,1 km/h (2 Bft)
04.04.2015 20:00 2,0 C 64 % 1015,8 hPa 0,0 l/m 6,3 km/h (2 Bft) N 0,00 h 0,025 mm 0,0 UV-I 0 W/m -4,2 C 1,3 C 10,7 km/h (2 Bft)
04.04.2015 21:00 1,1 C 69 % 1016,7 hPa 0,0 l/m 4,1 km/h (1 Bft) N 0,00 h 0,027 mm 0,0 UV-I 0 W/m -3,8 C 0,8 C 7,7 km/h (2 Bft)
04.04.2015 22:00 0,6 C 74 % 1017,4 hPa 0,0 l/m 2,1 km/h (1 Bft) N-NO 0,00 h 0,025 mm 0,0 UV-I 0 W/m -3,4 C 0,6 C 4,9 km/h (1 Bft)
04.04.2015 23:00 0,2 C 78 % 1017,9 hPa 0,0 l/m 2,1 km/h (1 Bft) N 0,00 h 0,025 mm 0,0 UV-I 0 W/m -3,2 C 0,2 C 4,0 km/h (1 Bft)
05.04.2015 00:00 -0,6 C 81 % 1018,1 hPa 0,0 l/m 1,9 km/h (1 Bft) N 0,00 h 0,000 mm 0,0 UV-I 0 W/m -3,4 C -0,6 C 4,0 km/h (1 Bft)
05.04.2015 01:00 -1,0 C 84 % 1018,3 hPa 0,0 l/m 3,1 km/h (1 Bft) N 0,00 h 0,000 mm 0,0 UV-I 0 W/m -3,4 C -1,5 C 5,5 km/h (2 Bft)
05.04.2015 02:00 -1,5 C 85 % 1018,5 hPa 0,0 l/m 0,2 km/h (0 Bft) N 0,00 h 0,000 mm 0,0 UV-I 0 W/m -3,7 C -1,5 C 1,0 km/h (0 Bft)
05.04.2015 03:00 -2,2 C 88 % 1018,6 hPa 0,0 l/m 0,6 km/h (0 Bft) N 0,00 h 0,000 mm 0,0 UV-I 0 W/m -3,8 C -2,2 C 1,6 km/h (1 Bft)
05.04.2015 04:00 -2,4 C 90 % 1019,1 hPa 0,0 l/m 0,8 km/h (0 Bft) N 0,00 h 0,000 mm 0,0 UV-I 0 W/m -3,8 C -2,4 C 1,8 km/h (1 Bft)
05.04.2015 05:00 -2,6 C 91 % 1019,6 hPa 0,0 l/m 0,7 km/h (0 Bft) N 0,00 h 0,000 mm 0,0 UV-I 0 W/m -3,9 C -2,6 C 1,8 km/h (1 Bft)
05.04.2015 06:00 -2,4 C 92 % 1020,1 hPa 0,0 l/m 7,8 km/h (2 Bft) N 0,00 h 0,000 mm 0,0 UV-I 8 W/m -3,4 C -4,2 C 12,1 km/h (2 Bft)
05.04.2015 07:00 -1,7 C 91 % 1020,8 hPa 0,0 l/m 8,7 km/h (2 Bft) N 0,20 h 0,000 mm 0,0 UV-I 40 W/m -2,9 C -4,1 C 12,4 km/h (2 Bft)
05.04.2015 08:00 0,0 C 87 % 1021,4 hPa 0,0 l/m 9,0 km/h (2 Bft) N 1,00 h 0,025 mm 0,7 UV-I 248 W/m -1,8 C -2,5 C 13,4 km/h (3 Bft)
05.04.2015 09:00 2,3 C 78 % 1021,8 hPa 0,0 l/m 8,4 km/h (2 Bft) N 1,00 h 0,102 mm 1,4 UV-I 452 W/m -1,1 C 0,2 C 13,3 km/h (3 Bft)
05.04.2015 10:00 4,1 C 64 % 1022,2 hPa 0,0 l/m 9,7 km/h (2 Bft) N 1,00 h 0,178 mm 2,2 UV-I 597 W/m -2,1 C 1,4 C 15,9 km/h (3 Bft)
05.04.2015 11:00 5,6 C 54 % 1022,4 hPa 0,0 l/m 10,5 km/h (2 Bft) N 1,00 h 0,254 mm 2,8 UV-I 621 W/m -3,0 C 2,6 C 16,7 km/h (3 Bft)
05.04.2015 12:00 6,0 C 47 % 1022,5 hPa 0,0 l/m 7,3 km/h (2 Bft) N 1,00 h 0,279 mm 2,4 UV-I 378 W/m -4,4 C 4,6 C 12,6 km/h (3 Bft)
05.04.2015 13:00 7,2 C 41 % 1022,5 hPa 0,0 l/m 8,3 km/h (2 Bft) N 1,00 h 0,203 mm 2,9 UV-I 549 W/m -5,1 C 5,4 C 13,8 km/h (3 Bft)
05.04.2015 14:00 6,8 C 42 % 1022,6 hPa 0,0 l/m 9,6 km/h (2 Bft) N 1,00 h 0,356 mm 2,0 UV-I 318 W/m -5,2 C 4,4 C 15,1 km/h (3 Bft)
05.04.2015 15:00 6,8 C 44 % 1022,6 hPa 0,0 l/m 10,8 km/h (2 Bft) N-NO 1,00 h 0,127 mm 2,1 UV-I 378 W/m -4,7 C 3,6 C 16,7 km/h (3 Bft)
05.04.2015 16:00 6,0 C 42 % 1022,7 hPa 0,0 l/m 8,0 km/h (2 Bft) N-NO 1,00 h 0,254 mm 1,5 UV-I 251 W/m -5,9 C 4,3 C 12,7 km/h (3 Bft)
05.04.2015 17:00 5,5 C 42 % 1023,0 hPa 0,0 l/m 7,3 km/h (2 Bft) N-NO 1,00 h 0,000 mm 1,5 UV-I 251 W/m -6,3 C 4,2 C 11,6 km/h (2 Bft)
05.04.2015 18:00 5,2 C 45 % 1023,4 hPa 0,0 l/m 7,3 km/h (2 Bft) N-NO 0,78 h 0,000 mm 1,5 UV-I 193 W/m -5,8 C 4,0 C 11,7 km/h (2 Bft)
05.04.2015 19:00 4,1 C 56 % 1023,7 hPa 0,0 l/m 3,6 km/h (1 Bft) N 0,00 h 0,051 mm 0,0 UV-I 24 W/m -3,9 C 4,0 C 6,9 km/h (2 Bft)
05.04.2015 20:00 3,3 C 66 % 1024,3 hPa 0,0 l/m 8,4 km/h (2 Bft) N-NO 0,00 h 0,025 mm 0,0 UV-I 0 W/m -2,5 C 1,1 C 13,0 km/h (3 Bft)
05.04.2015 21:00 2,4 C 72 % 1024,4 hPa 0,0 l/m 0,2 km/h (0 Bft) N 0,00 h 0,025 mm 0,0 UV-I 0 W/m -2,1 C 2,4 C 0,5 km/h (0 Bft)
05.04.2015 22:00 1,4 C 78 % 1024,7 hPa 0,0 l/m 0,0 km/h (0 Bft) N 0,00 h 0,025 mm 0,0 UV-I 0 W/m -1,9 C 1,4 C 0,3 km/h (0 Bft)
05.04.2015 23:00 0,4 C 83 % 1024,7 hPa 0,0 l/m 0,0 km/h (0 Bft) N 0,00 h 0,000 mm 0,0 UV-I 0 W/m -2,2 C 0,4 C 0,0 km/h (0 Bft)
Min-Datum _ 04.04.15 05.04.15 31.03.15 - 30.03.15 - - - - - 05.04.15 01.04.15 31.03.15
_ Min-Zeit 05:36 13:16 09:51 - 21:57 - - - - - 18:34 03:17 00:13
Minimum _ -3,2 C 38 % 993,1 hPa - 0,0 km/h (0 Bft) - - - - - -6,7 C -11,8 C 0,0 km/h (0 Bft)
Max-Datum _ 31.03.15 31.03.15 05.04.15 31.03.15 31.03.15 - 04.04.15 30.03.15 03.04.15 03.04.15 31.03.15 30.03.15 31.03.15
_ Max-Zeit 12:31 07:18 22:17 07:02 10:38 - 07:59 12:00 13:05 12:26 11:07 11:42 11:10
Maximum _ 12,6 C 97 % 1024,7 hPa 3,8 l/m 46,7 km/h
W-SW (6 Bft)
- 0,08 h 0,356 mm 5,5 UV-I 1139 W/m 8,3 C 8,6 C 77,2 km/h
W (9 Bft)
Durchschnitt _ 3,0 C 79 % 1012,0 hPa #31,6 l/m 10,2 km/h (2 Bft) W #68:36 h #11,980 mm 1,6 UV-I 233 W/m -0,6 C -0,3 C 16,3 km/h (3 Bft)